createdAt,value
2023-02-22T00:01:21.954Z,2.97
2023-02-22T00:03:52.399Z,2.22
2023-02-22T00:06:20.309Z,1.58
2023-02-22T00:08:48.000Z,2.40
2023-02-22T00:11:15.553Z,2.53
2023-02-22T00:13:45.128Z,2.17
2023-02-22T00:16:16.404Z,2.63
2023-02-22T00:18:44.599Z,3.20
2023-02-22T00:21:14.281Z,2.75
2023-02-22T00:23:46.613Z,2.75
2023-02-22T00:26:18.160Z,2.47
2023-02-22T00:28:48.944Z,2.30
2023-02-22T00:31:16.405Z,2.53
2023-02-22T00:33:43.961Z,2.60
2023-02-22T00:36:11.589Z,2.08
2023-02-22T00:38:38.913Z,2.35
2023-02-22T00:41:06.121Z,1.95
2023-02-22T00:43:33.525Z,2.13
2023-02-22T00:46:00.904Z,2.03
2023-02-22T00:48:28.572Z,2.80
2023-02-22T00:50:55.861Z,3.38
2023-02-22T00:53:26.234Z,3.53
2023-02-22T00:55:53.386Z,2.70
2023-02-22T00:58:20.532Z,3.75
2023-02-22T01:00:48.234Z,2.70
2023-02-22T01:03:15.822Z,3.08
2023-02-22T01:05:43.284Z,2.47
2023-02-22T01:08:11.127Z,3.67
2023-02-22T01:10:38.424Z,2.80
2023-02-22T01:13:08.689Z,2.70
2023-02-22T01:15:36.775Z,3.50
2023-02-22T01:18:05.156Z,3.93
2023-02-22T01:20:32.511Z,2.88
2023-02-22T01:23:00.145Z,3.10
2023-02-22T01:25:28.502Z,3.40
2023-02-22T01:27:55.986Z,2.55
2023-02-22T01:30:23.993Z,2.83
2023-02-22T01:32:51.284Z,3.03
2023-02-22T01:35:18.981Z,3.30
2023-02-22T01:37:46.199Z,2.60
2023-02-22T01:40:18.668Z,2.88
2023-02-22T01:42:45.873Z,2.70
2023-02-22T01:45:36.531Z,2.35
2023-02-22T01:48:05.548Z,2.83
2023-02-22T01:50:33.305Z,3.40
2023-02-22T01:53:00.725Z,3.58
2023-02-22T01:55:28.012Z,3.40
2023-02-22T01:57:55.160Z,3.28
2023-02-22T02:00:24.373Z,3.13
2023-02-22T02:02:53.821Z,2.97
2023-02-22T02:05:21.122Z,3.78
2023-02-22T02:07:49.419Z,2.45
2023-02-22T02:10:16.690Z,3.57
2023-02-22T02:12:44.644Z,3.30
2023-02-22T02:15:20.996Z,2.75
2023-02-22T02:17:48.862Z,2.80
2023-02-22T02:20:25.521Z,2.25
2023-02-22T02:23:06.291Z,2.72
2023-02-22T02:25:39.574Z,2.67
2023-02-22T02:28:34.154Z,3.55
2023-02-22T02:31:01.274Z,3.75
2023-02-22T02:33:34.290Z,3.47
2023-02-22T02:36:01.455Z,3.07
2023-02-22T02:38:31.535Z,2.63
2023-02-22T02:40:58.737Z,1.80
2023-02-22T02:43:41.184Z,2.22
2023-02-22T02:46:27.440Z,3.33
2023-02-22T02:48:56.880Z,2.63
2023-02-22T02:51:24.957Z,2.63
2023-02-22T02:53:52.144Z,2.35
2023-02-22T02:56:19.541Z,2.65
2023-02-22T02:58:50.727Z,3.17
2023-02-22T03:01:33.515Z,3.28
2023-02-22T03:04:06.950Z,3.17
2023-02-22T03:06:44.266Z,3.33
2023-02-22T03:09:16.275Z,3.72
2023-02-22T03:11:48.610Z,3.63
2023-02-22T03:14:23.550Z,3.38
2023-02-22T03:16:51.616Z,3.58
2023-02-22T03:19:23.180Z,2.78
2023-02-22T03:21:50.339Z,2.88
2023-02-22T03:24:19.000Z,3.63
2023-02-22T03:26:48.214Z,4.05
2023-02-22T03:29:16.167Z,3.17
2023-02-22T03:31:48.530Z,2.85
2023-02-22T03:34:26.103Z,3.33
2023-02-22T03:37:04.082Z,2.65
2023-02-22T03:39:31.379Z,3.38
2023-02-22T03:41:59.378Z,2.53
2023-02-22T03:44:26.651Z,2.83
2023-02-22T03:46:54.281Z,3.03
2023-02-22T03:49:24.483Z,2.90
2023-02-22T03:51:51.630Z,3.23
2023-02-22T03:54:18.765Z,4.78
2023-02-22T03:56:47.341Z,3.08
2023-02-22T03:59:14.752Z,3.72
2023-02-22T04:01:41.904Z,3.03
2023-02-22T04:04:09.053Z,3.22
2023-02-22T04:06:36.190Z,3.60
2023-02-22T04:09:03.354Z,3.55
2023-02-22T04:11:30.546Z,3.40
2023-02-22T04:13:58.415Z,4.00
2023-02-22T04:16:25.860Z,3.80
2023-02-22T04:18:53.023Z,2.65
2023-02-22T04:21:20.302Z,3.42
2023-02-22T04:23:47.564Z,2.63
2023-02-22T04:26:14.685Z,3.13
2023-02-22T04:28:41.853Z,3.70
2023-02-22T04:31:09.565Z,3.75
2023-02-22T04:33:36.785Z,2.40
2023-02-22T04:36:04.047Z,4.28
2023-02-22T04:38:31.200Z,4.22
2023-02-22T04:40:58.367Z,4.30
2023-02-22T04:43:25.512Z,3.85
2023-02-22T04:45:52.658Z,2.97
2023-02-22T04:48:19.840Z,3.28
2023-02-22T04:50:47.599Z,3.97
2023-02-22T04:53:14.725Z,3.05
2023-02-22T04:55:42.202Z,3.08
2023-02-22T04:58:09.623Z,4.00
2023-02-22T05:00:36.816Z,3.72
2023-02-22T05:03:03.990Z,4.43
2023-02-22T05:05:31.229Z,4.78
2023-02-22T05:07:58.374Z,3.78
2023-02-22T05:10:25.525Z,3.10
2023-02-22T05:12:52.751Z,3.95
2023-02-22T05:15:20.273Z,3.90
2023-02-22T05:17:47.473Z,3.67
2023-02-22T05:20:31.082Z,3.47
2023-02-22T05:22:58.585Z,4.03
2023-02-22T05:25:25.772Z,4.10
2023-02-22T05:28:00.348Z,3.42
2023-02-22T05:30:28.574Z,3.47
2023-02-22T05:32:55.792Z,3.47
2023-02-22T05:35:23.518Z,3.85
2023-02-22T05:37:50.867Z,3.22
2023-02-22T05:40:18.904Z,3.60
2023-02-22T05:42:48.894Z,3.22
2023-02-22T05:45:18.704Z,3.33
2023-02-22T05:47:45.861Z,2.67
2023-02-22T05:50:13.175Z,2.90
2023-02-22T05:52:40.335Z,2.83
2023-02-22T05:55:07.855Z,3.50
2023-02-22T05:57:35.044Z,3.63
2023-02-22T06:00:02.455Z,2.75
2023-02-22T06:02:29.661Z,3.35
2023-02-22T06:04:56.855Z,4.13
2023-02-22T06:07:25.954Z,3.13
2023-02-22T06:09:53.415Z,3.13
2023-02-22T06:12:20.585Z,3.65
2023-02-22T06:14:47.797Z,3.20
2023-02-22T06:17:15.187Z,3.00
2023-02-22T06:19:42.335Z,3.30
2023-02-22T06:22:09.512Z,3.80
2023-02-22T06:24:39.385Z,3.25
2023-02-22T06:27:06.603Z,3.58
2023-02-22T06:29:33.746Z,3.10
2023-02-22T06:32:00.980Z,2.30
2023-02-22T06:34:28.162Z,2.50
2023-02-22T06:36:55.487Z,2.63
2023-02-22T06:39:22.706Z,3.53
2023-02-22T06:41:51.476Z,2.97
2023-02-22T06:44:18.753Z,2.65
2023-02-22T06:46:52.130Z,2.67
2023-02-22T06:49:19.832Z,3.53
2023-02-22T06:51:46.988Z,2.58
2023-02-22T06:54:14.193Z,4.20
2023-02-22T06:56:41.467Z,3.38
2023-02-22T06:59:08.633Z,2.97
2023-02-22T07:01:35.961Z,3.07
2023-02-22T07:04:03.394Z,3.65
2023-02-22T07:06:30.644Z,4.40
2023-02-22T07:08:57.903Z,5.72
2023-02-22T07:11:25.054Z,9.75
2023-02-22T07:13:52.224Z,9.07
2023-02-22T07:16:19.443Z,6.83
2023-02-22T07:18:46.680Z,5.05
2023-02-22T07:21:13.984Z,5.18
2023-02-22T07:23:41.173Z,4.43
2023-02-22T07:26:08.361Z,3.65
2023-02-22T07:28:35.491Z,4.38
2023-02-22T07:31:02.893Z,4.10
2023-02-22T07:33:30.185Z,4.43
2023-02-22T07:35:57.356Z,3.92
2023-02-22T07:38:24.528Z,5.03
2023-02-22T07:40:53.999Z,3.78
2023-02-22T07:43:21.211Z,3.47
2023-02-22T07:45:48.839Z,3.75
2023-02-22T07:48:17.385Z,3.60
2023-02-22T07:50:44.793Z,3.67
2023-02-22T07:53:22.104Z,3.75
2023-02-22T07:55:52.075Z,3.72
2023-02-22T07:58:20.105Z,4.40
2023-02-22T08:00:50.171Z,4.75
2023-02-22T08:03:18.011Z,4.97
2023-02-22T08:05:49.393Z,5.00
2023-02-22T08:08:18.820Z,4.60
2023-02-22T08:10:47.070Z,4.13
2023-02-22T08:13:14.324Z,4.45
2023-02-22T08:15:41.760Z,4.55
2023-02-22T08:18:09.870Z,4.20
2023-02-22T08:20:37.406Z,3.92
2023-02-22T08:23:05.024Z,4.35
2023-02-22T08:25:32.425Z,5.05
2023-02-22T08:28:01.260Z,5.63
2023-02-22T08:30:28.994Z,5.25
2023-02-22T08:32:56.292Z,3.75
2023-02-22T08:35:23.586Z,3.88
2023-02-22T08:37:51.484Z,3.90
2023-02-22T08:40:19.553Z,3.75
2023-02-22T08:42:46.736Z,4.28
2023-02-22T08:45:14.115Z,3.95
2023-02-22T08:47:41.588Z,4.53
2023-02-22T08:50:08.985Z,4.13
2023-02-22T08:52:36.228Z,4.03
2023-02-22T08:55:03.429Z,4.68
2023-02-22T08:57:31.848Z,4.38
2023-02-22T08:59:59.018Z,3.80
2023-02-22T09:02:26.363Z,4.93
2023-02-22T09:04:53.649Z,4.47
2023-02-22T09:07:20.815Z,3.70
2023-02-22T09:09:47.944Z,3.53
2023-02-22T09:12:15.134Z,3.90
2023-02-22T09:14:43.080Z,3.60
2023-02-22T09:17:10.330Z,4.25
2023-02-22T09:19:37.457Z,4.35
2023-02-22T09:22:04.599Z,4.05
2023-02-22T09:24:31.795Z,4.18
2023-02-22T09:26:59.860Z,4.07
2023-02-22T09:29:27.351Z,3.38
2023-02-22T09:31:55.174Z,4.72
2023-02-22T09:34:22.808Z,4.85
2023-02-22T09:36:50.352Z,4.10
2023-02-22T09:39:17.713Z,4.75
2023-02-22T09:41:52.455Z,4.25
2023-02-22T09:44:29.632Z,4.35
2023-02-22T09:46:56.807Z,4.60
2023-02-22T09:49:27.667Z,4.97
2023-02-22T09:51:54.862Z,5.00
2023-02-22T09:54:27.748Z,3.85
2023-02-22T09:56:57.359Z,4.38
2023-02-22T09:59:27.003Z,4.32
2023-02-22T10:02:06.292Z,4.90
2023-02-22T10:04:33.461Z,3.83
2023-02-22T10:07:06.376Z,4.10
2023-02-22T10:09:37.673Z,4.38
2023-02-22T10:12:12.732Z,5.00
2023-02-22T10:14:45.036Z,4.10
2023-02-22T10:17:12.205Z,4.15
2023-02-22T10:19:42.741Z,3.93
2023-02-22T10:22:19.216Z,3.70
2023-02-22T10:24:46.370Z,3.75
2023-02-22T10:27:18.323Z,4.25
2023-02-22T10:29:53.794Z,4.18
2023-02-22T10:32:29.009Z,3.78
2023-02-22T10:34:56.219Z,3.75
2023-02-22T10:37:25.580Z,3.80
2023-02-22T10:39:54.481Z,4.45
2023-02-22T10:42:22.201Z,4.07
2023-02-22T10:44:49.383Z,3.97
2023-02-22T10:47:18.737Z,4.32
2023-02-22T10:49:50.815Z,3.70
2023-02-22T10:52:31.240Z,3.53
2023-02-22T10:55:13.618Z,4.05
2023-02-22T10:57:42.373Z,4.37
2023-02-22T11:00:19.762Z,3.33
2023-02-22T11:02:54.247Z,3.90
2023-02-22T11:05:28.989Z,4.30
2023-02-22T11:08:17.249Z,3.83
2023-02-22T11:10:44.454Z,3.13
2023-02-22T11:13:18.604Z,3.77
2023-02-22T11:15:45.794Z,3.30
2023-02-22T11:18:29.329Z,3.90
2023-02-22T11:21:02.892Z,3.40
2023-02-22T11:23:30.321Z,3.80
2023-02-22T11:26:16.281Z,4.00
2023-02-22T11:28:49.404Z,3.72
2023-02-22T11:31:18.508Z,3.07
2023-02-22T11:34:02.086Z,3.03
2023-02-22T11:36:33.855Z,4.25
2023-02-22T11:39:01.148Z,3.28
2023-02-22T11:41:29.125Z,3.78
2023-02-22T11:43:56.305Z,3.33
2023-02-22T11:46:26.351Z,3.40
2023-02-22T11:48:56.574Z,3.75
2023-02-22T11:51:29.519Z,3.72
2023-02-22T11:54:03.776Z,4.35
2023-02-22T11:56:40.170Z,4.15
2023-02-22T11:59:30.129Z,3.70
2023-02-22T12:02:00.103Z,3.72
2023-02-22T12:04:42.771Z,3.85
2023-02-22T12:07:16.911Z,3.25
2023-02-22T12:09:44.505Z,4.05
2023-02-22T12:12:14.566Z,4.03
2023-02-22T12:14:44.501Z,3.42
2023-02-22T12:17:19.167Z,3.25
2023-02-22T12:20:01.551Z,4.13
2023-02-22T12:22:38.962Z,3.28
2023-02-22T12:25:12.217Z,3.65
2023-02-22T12:27:44.283Z,4.68
2023-02-22T12:30:13.737Z,3.08
2023-02-22T12:32:42.305Z,3.73
2023-02-22T12:35:09.620Z,3.67
2023-02-22T12:37:57.027Z,3.33
2023-02-22T12:40:35.576Z,3.40
2023-02-22T12:43:22.420Z,3.45
2023-02-22T12:45:49.668Z,3.03
2023-02-22T12:48:21.587Z,2.60
2023-02-22T12:50:49.841Z,3.10
2023-02-22T12:53:27.149Z,3.47
2023-02-22T12:56:21.260Z,3.58
2023-02-22T12:59:02.174Z,2.97
2023-02-22T13:01:31.168Z,2.60
2023-02-22T13:04:02.058Z,3.55
2023-02-22T13:06:46.235Z,2.90
2023-02-22T13:09:16.408Z,2.90
2023-02-22T13:12:02.192Z,3.53
2023-02-22T13:14:52.875Z,3.67
2023-02-22T13:17:26.280Z,3.20
2023-02-22T13:19:53.431Z,2.73
2023-02-22T13:22:40.845Z,2.97
2023-02-22T13:25:10.640Z,2.58
2023-02-22T13:27:59.348Z,3.40
2023-02-22T13:30:46.765Z,2.40
2023-02-22T13:33:39.952Z,2.30
2023-02-22T13:36:07.114Z,2.78
2023-02-22T13:38:53.253Z,2.90
2023-02-22T13:41:27.132Z,3.88
2023-02-22T13:43:57.302Z,3.13
2023-02-22T13:46:39.453Z,3.05
2023-02-22T13:49:25.766Z,3.10
2023-02-22T13:51:54.036Z,3.45
2023-02-22T13:54:27.497Z,2.40
2023-02-22T13:56:55.636Z,2.58
2023-02-22T13:59:27.373Z,3.15
2023-02-22T14:01:55.026Z,2.53
2023-02-22T14:04:28.525Z,3.38
2023-02-22T14:07:00.521Z,2.67
2023-02-22T14:09:39.590Z,3.67
2023-02-22T14:12:06.727Z,2.95
2023-02-22T14:14:33.913Z,3.33
2023-02-22T14:17:36.563Z,2.80
2023-02-22T14:20:14.742Z,3.85
2023-02-22T14:22:47.611Z,3.10
2023-02-22T14:25:34.570Z,2.95
2023-02-22T14:28:02.910Z,3.10
2023-02-22T14:30:31.126Z,3.95
2023-02-22T14:33:00.466Z,3.67
2023-02-22T14:35:38.633Z,3.15
2023-02-22T14:38:18.152Z,3.30
2023-02-22T14:40:45.298Z,3.22
2023-02-22T14:43:19.861Z,2.70
2023-02-22T14:45:57.196Z,3.60
2023-02-22T14:48:39.306Z,3.03
2023-02-22T14:51:29.911Z,3.13
2023-02-22T14:54:00.643Z,3.00
2023-02-22T14:56:29.001Z,2.35
2023-02-22T14:58:58.763Z,3.28
2023-02-22T15:01:47.515Z,2.40
2023-02-22T15:04:25.631Z,2.73
2023-02-22T15:06:53.214Z,2.60
2023-02-22T15:09:26.504Z,2.85
2023-02-22T15:11:58.111Z,2.85
2023-02-22T15:14:26.842Z,3.92
2023-02-22T15:16:54.706Z,3.30
2023-02-22T15:19:25.345Z,3.53
2023-02-22T15:21:56.084Z,2.55
2023-02-22T15:24:27.719Z,2.58
2023-02-22T15:27:01.620Z,2.75
2023-02-22T15:29:37.414Z,3.53
2023-02-22T15:32:11.420Z,2.53
2023-02-22T15:34:38.888Z,2.63
2023-02-22T15:37:22.284Z,3.58
2023-02-22T15:39:49.477Z,2.72
2023-02-22T15:42:20.963Z,2.40
2023-02-22T15:44:48.657Z,2.93
2023-02-22T15:47:22.890Z,3.90
2023-02-22T15:50:15.237Z,3.10
2023-02-22T15:53:01.609Z,2.22
2023-02-22T15:55:37.962Z,3.35
2023-02-22T15:58:10.893Z,2.20
2023-02-22T16:00:42.563Z,2.60
2023-02-22T16:03:13.100Z,2.40
2023-02-22T16:05:41.562Z,3.50
2023-02-22T16:08:31.272Z,2.60
2023-02-22T16:11:13.308Z,2.50
2023-02-22T16:13:41.616Z,2.50
2023-02-22T16:16:20.830Z,3.50
2023-02-22T16:18:48.549Z,2.28
2023-02-22T16:21:21.591Z,1.85
2023-02-22T16:23:48.897Z,1.83
2023-02-22T16:26:28.248Z,2.55
2023-02-22T16:28:58.633Z,2.20
2023-02-22T16:31:28.720Z,2.22
2023-02-22T16:33:55.959Z,2.20
2023-02-22T16:36:24.144Z,2.28
2023-02-22T16:38:51.870Z,2.85
2023-02-22T16:41:21.942Z,2.42
2023-02-22T16:43:51.289Z,2.50
2023-02-22T16:46:19.622Z,2.22
2023-02-22T16:48:47.078Z,2.50
2023-02-22T16:51:21.937Z,2.63
2023-02-22T16:53:49.509Z,1.92
2023-02-22T16:56:18.250Z,2.15
2023-02-22T16:58:45.550Z,3.22
2023-02-22T17:01:12.923Z,3.30
2023-02-22T17:03:40.192Z,3.20
2023-02-22T17:06:07.502Z,2.65
2023-02-22T17:08:34.629Z,2.70
2023-02-22T17:11:01.968Z,3.15
2023-02-22T17:13:29.430Z,2.28
2023-02-22T17:15:57.160Z,2.67
2023-02-22T17:18:24.942Z,2.70
2023-02-22T17:20:52.512Z,3.37
2023-02-22T17:23:19.875Z,2.67
2023-02-22T17:25:49.812Z,2.83
2023-02-22T17:28:17.146Z,2.47
2023-02-22T17:30:45.378Z,2.90
2023-02-22T17:33:16.022Z,2.75
2023-02-22T17:35:44.041Z,3.35
2023-02-22T17:38:11.240Z,2.72
2023-02-22T17:40:39.020Z,2.67
2023-02-22T17:43:08.755Z,2.38
2023-02-22T17:45:38.332Z,3.55
2023-02-22T17:48:05.699Z,2.58
2023-02-22T17:50:32.867Z,2.60
2023-02-22T17:53:00.650Z,2.63
2023-02-22T17:55:27.886Z,2.88
2023-02-22T17:57:58.617Z,3.58
2023-02-22T18:00:32.980Z,3.20
2023-02-22T18:03:01.439Z,2.33
2023-02-22T18:05:28.761Z,2.80
2023-02-22T18:07:56.056Z,2.45
2023-02-22T18:10:23.315Z,2.60
2023-02-22T18:12:51.664Z,2.38
2023-02-22T18:15:19.262Z,4.03
2023-02-22T18:17:46.529Z,2.40
2023-02-22T18:20:14.375Z,2.65
2023-02-22T18:22:43.123Z,2.30
2023-02-22T18:25:10.759Z,2.88
2023-02-22T18:27:37.961Z,3.22
2023-02-22T18:30:05.597Z,2.35
2023-02-22T18:32:33.565Z,2.38
2023-02-22T18:35:00.889Z,2.95
2023-02-22T18:37:31.072Z,2.45
2023-02-22T18:39:58.466Z,2.63
2023-02-22T18:42:26.032Z,2.70
2023-02-22T18:44:53.676Z,2.53
2023-02-22T18:47:21.186Z,2.45
2023-02-22T18:49:48.798Z,2.58
2023-02-22T18:52:16.186Z,2.65
2023-02-22T18:54:43.440Z,3.95
2023-02-22T18:57:12.658Z,3.20
2023-02-22T18:59:40.367Z,3.30
2023-02-22T19:02:07.882Z,2.90
2023-02-22T19:04:35.087Z,3.13
2023-02-22T19:07:02.239Z,3.47
2023-02-22T19:09:29.401Z,3.70
2023-02-22T19:11:56.551Z,3.38
2023-02-22T19:14:23.781Z,3.50
2023-02-22T19:16:51.179Z,3.00
2023-02-22T19:19:21.350Z,2.97
2023-02-22T19:21:49.077Z,3.58
2023-02-22T19:24:18.874Z,3.60
2023-02-22T19:26:53.740Z,3.03
2023-02-22T19:29:23.939Z,3.72
2023-02-22T19:31:51.741Z,3.72
2023-02-22T19:34:21.813Z,4.57
2023-02-22T19:36:49.020Z,4.10
2023-02-22T19:39:16.808Z,4.60
2023-02-22T19:41:44.081Z,3.25
2023-02-22T19:44:12.197Z,3.47
2023-02-22T19:46:39.616Z,3.13
2023-02-22T19:49:07.125Z,4.55
2023-02-22T19:51:34.815Z,3.58
2023-02-22T19:54:02.940Z,3.85
2023-02-22T19:56:31.162Z,4.13
2023-02-22T19:58:59.519Z,4.60
2023-02-22T20:01:29.942Z,4.95
2023-02-22T20:03:59.792Z,4.47
2023-02-22T20:06:29.849Z,4.75
2023-02-22T20:08:57.204Z,4.13
2023-02-22T20:11:24.619Z,4.82
2023-02-22T20:13:51.888Z,4.47
2023-02-22T20:16:19.171Z,4.85
2023-02-22T20:18:47.051Z,4.40
2023-02-22T20:21:17.342Z,5.05
2023-02-22T20:23:44.788Z,4.70
2023-02-22T20:26:16.236Z,4.85
2023-02-22T20:28:43.483Z,4.65
2023-02-22T20:31:11.389Z,4.95
2023-02-22T20:33:41.689Z,5.55
2023-02-22T20:36:13.064Z,4.40
2023-02-22T20:38:40.478Z,4.25
2023-02-22T20:41:14.772Z,4.38
2023-02-22T20:43:42.063Z,4.45
2023-02-22T20:46:09.365Z,5.82
2023-02-22T20:48:36.564Z,4.72
2023-02-22T20:51:07.423Z,4.45
2023-02-22T20:53:35.384Z,5.30
2023-02-22T20:56:02.827Z,4.60
2023-02-22T20:58:29.983Z,5.35
2023-02-22T21:00:57.196Z,4.95
2023-02-22T21:03:24.421Z,5.25
2023-02-22T21:05:51.604Z,4.50
2023-02-22T21:08:19.024Z,4.80
2023-02-22T21:10:46.808Z,4.72
2023-02-22T21:13:14.118Z,4.65
2023-02-22T21:15:46.998Z,4.95
2023-02-22T21:18:14.378Z,5.07
2023-02-22T21:20:43.239Z,5.93
2023-02-22T21:23:11.113Z,4.57
2023-02-22T21:25:38.759Z,5.18
2023-02-22T21:28:06.044Z,5.00
2023-02-22T21:30:33.482Z,5.57
2023-02-22T21:33:02.194Z,5.03
2023-02-22T21:35:30.294Z,4.70
2023-02-22T21:37:57.443Z,5.40
2023-02-22T21:40:26.273Z,5.43
2023-02-22T21:42:53.396Z,5.25
2023-02-22T21:45:21.116Z,4.55
2023-02-22T21:47:48.473Z,4.68
2023-02-22T21:50:16.558Z,6.15
2023-02-22T21:52:44.211Z,5.15
2023-02-22T21:55:11.838Z,5.45
2023-02-22T21:57:40.646Z,4.80
2023-02-22T22:00:35.799Z,5.43
2023-02-22T22:03:08.445Z,4.32
2023-02-22T22:05:35.665Z,5.63
2023-02-22T22:08:05.316Z,5.03
2023-02-22T22:10:33.220Z,5.07
2023-02-22T22:13:00.534Z,5.30
2023-02-22T22:15:30.017Z,5.13
2023-02-22T22:18:05.407Z,6.35
2023-02-22T22:20:33.324Z,6.00
2023-02-22T22:23:00.483Z,6.00
2023-02-22T22:25:28.407Z,4.90
2023-02-22T22:27:58.168Z,5.23
2023-02-22T22:30:25.748Z,5.05
2023-02-22T22:32:52.962Z,6.38
2023-02-22T22:35:20.141Z,5.68
2023-02-22T22:37:51.281Z,5.18
2023-02-22T22:40:18.703Z,5.45
2023-02-22T22:42:46.573Z,5.07
2023-02-22T22:45:18.234Z,5.55
2023-02-22T22:47:46.152Z,6.85
2023-02-22T22:50:20.096Z,4.88
2023-02-22T22:52:49.064Z,4.22
2023-02-22T22:55:16.620Z,7.05
2023-02-22T22:57:43.797Z,5.93
2023-02-22T23:00:32.265Z,5.55
2023-02-22T23:03:00.439Z,6.05
2023-02-22T23:05:28.635Z,4.70
2023-02-22T23:08:04.731Z,5.28
2023-02-22T23:10:32.938Z,5.47
2023-02-22T23:13:00.738Z,5.05
2023-02-22T23:15:28.316Z,5.40
2023-02-22T23:17:57.388Z,4.32
2023-02-22T23:20:26.440Z,4.80
2023-02-22T23:22:54.254Z,5.40
2023-02-22T23:25:21.648Z,5.07
2023-02-22T23:27:49.405Z,4.95
2023-02-22T23:30:18.834Z,5.30
2023-02-22T23:32:46.856Z,5.78
2023-02-22T23:35:19.057Z,4.68
2023-02-22T23:37:50.262Z,4.75
2023-02-22T23:40:18.340Z,5.18
2023-02-22T23:42:49.210Z,5.38
2023-02-22T23:45:23.594Z,5.73
2023-02-22T23:47:54.535Z,5.25
2023-02-22T23:50:23.098Z,5.20
2023-02-22T23:52:51.020Z,4.60
2023-02-22T23:55:21.127Z,4.88
2023-02-22T23:57:48.363Z,5.57
